sensor_id;sensor_type;location;lat;lon;timestamp;P1;durP1;ratioP1;P2;durP2;ratioP2
5929;SDS011;2990;48.746;9.236;2022-08-25T17:28:19;1049.85;;;966.35;;
5929;SDS011;2990;48.746;9.236;2022-08-25T17:30:45;1050.25;;;965.90;;
5929;SDS011;2990;48.746;9.236;2022-08-25T17:33:11;1006.70;;;929.40;;
5929;SDS011;2990;48.746;9.236;2022-08-25T17:35:42;977.03;;;903.28;;
5929;SDS011;2990;48.746;9.236;2022-08-25T17:38:10;980.75;;;907.10;;
5929;SDS011;2990;48.746;9.236;2022-08-25T17:40:36;987.88;;;914.75;;
5929;SDS011;2990;48.746;9.236;2022-08-25T17:43:02;972.22;;;899.90;;
5929;SDS011;2990;48.746;9.236;2022-08-25T17:45:28;956.90;;;886.60;;
5929;SDS011;2990;48.746;9.236;2022-08-25T17:47:54;921.70;;;855.67;;
5929;SDS011;2990;48.746;9.236;2022-08-25T17:50:20;921.03;;;855.03;;
5929;SDS011;2990;48.746;9.236;2022-08-25T17:52:46;943.10;;;874.22;;
5929;SDS011;2990;48.746;9.236;2022-08-25T17:55:11;934.78;;;867.25;;
5929;SDS011;2990;48.746;9.236;2022-08-25T17:57:37;931.50;;;864.20;;
5929;SDS011;2990;48.746;9.236;2022-08-25T18:00:04;917.47;;;852.40;;
5929;SDS011;2990;48.746;9.236;2022-08-25T18:02:36;927.67;;;860.42;;
5929;SDS011;2990;48.746;9.236;2022-08-25T18:05:03;911.70;;;846.72;;
5929;SDS011;2990;48.746;9.236;2022-08-25T18:07:30;931.47;;;863.60;;
5929;SDS011;2990;48.746;9.236;2022-08-25T18:09:56;929.95;;;862.83;;
5929;SDS011;2990;48.746;9.236;2022-08-25T18:12:22;926.22;;;859.78;;
5929;SDS011;2990;48.746;9.236;2022-08-25T18:14:48;917.92;;;852.00;;
5929;SDS011;2990;48.746;9.236;2022-08-25T18:17:15;944.20;;;874.72;;
5929;SDS011;2990;48.746;9.236;2022-08-25T18:19:41;945.78;;;876.47;;
5929;SDS011;2990;48.746;9.236;2022-08-25T18:22:06;960.08;;;889.95;;
5929;SDS011;2990;48.746;9.236;2022-08-25T18:24:32;962.88;;;891.40;;
5929;SDS011;2990;48.746;9.236;2022-08-25T18:26:59;965.25;;;893.92;;
5929;SDS011;2990;48.746;9.236;2022-08-25T18:29:25;941.35;;;872.05;;
5929;SDS011;2990;48.746;9.236;2022-08-25T18:31:52;963.10;;;891.35;;
5929;SDS011;2990;48.746;9.236;2022-08-25T18:34:17;981.15;;;907.85;;
5929;SDS011;2990;48.746;9.236;2022-08-25T18:36:43;989.67;;;914.78;;
5929;SDS011;2990;48.746;9.236;2022-08-25T18:39:08;1001.38;;;924.92;;
5929;SDS011;2990;48.746;9.236;2022-08-25T18:41:52;1007.75;;;929.65;;
5929;SDS011;2990;48.746;9.236;2022-08-25T18:44:18;1012.40;;;933.83;;
5929;SDS011;2990;48.746;9.236;2022-08-25T18:46:44;1027.80;;;947.33;;
5929;SDS011;2990;48.746;9.236;2022-08-25T18:49:10;1026.68;;;945.90;;
5929;SDS011;2990;48.746;9.236;2022-08-25T18:51:36;1005.05;;;926.80;;
5929;SDS011;2990;48.746;9.236;2022-08-25T18:54:03;1046.72;;;962.90;;
5929;SDS011;2990;48.746;9.236;2022-08-25T18:56:29;1048.43;;;963.95;;
5929;SDS011;2990;48.746;9.236;2022-08-25T18:58:54;1060.13;;;974.88;;
5929;SDS011;2990;48.746;9.236;2022-08-25T19:01:21;1064.05;;;977.78;;
5929;SDS011;2990;48.746;9.236;2022-08-25T19:03:47;1083.88;;;993.78;;
5929;SDS011;2990;48.746;9.236;2022-08-25T19:06:12;1045.85;;;962.03;;
5929;SDS011;2990;48.746;9.236;2022-08-25T19:08:38;1046.95;;;962.92;;
5929;SDS011;2990;48.746;9.236;2022-08-25T19:11:05;1061.25;;;975.95;;
5929;SDS011;2990;48.746;9.236;2022-08-25T19:13:31;1092.53;;;997.78;;
5929;SDS011;2990;48.746;9.236;2022-08-25T19:15:57;1068.22;;;981.22;;
5929;SDS011;2990;48.746;9.236;2022-08-25T19:18:23;1101.68;;;999.90;;
5929;SDS011;2990;48.746;9.236;2022-08-25T19:20:48;1093.88;;;997.97;;
5929;SDS011;2990;48.746;9.236;2022-08-25T19:23:15;1108.68;;;999.90;;
5929;SDS011;2990;48.746;9.236;2022-08-25T19:25:41;1107.72;;;999.90;;
5929;SDS011;2990;48.746;9.236;2022-08-25T19:28:08;1119.18;;;999.90;;
5929;SDS011;2990;48.746;9.236;2022-08-25T19:30:36;1074.97;;;986.03;;
5929;SDS011;2990;48.746;9.236;2022-08-25T19:33:02;1119.47;;;999.90;;
5929;SDS011;2990;48.746;9.236;2022-08-25T19:37:55;1130.25;;;999.90;;
5929;SDS011;2990;48.746;9.236;2022-08-25T19:40:22;1125.80;;;999.90;;
5929;SDS011;2990;48.746;9.236;2022-08-25T19:42:48;1096.55;;;999.38;;
5929;SDS011;2990;48.746;9.236;2022-08-25T19:45:16;1124.28;;;999.90;;
5929;SDS011;2990;48.746;9.236;2022-08-25T19:47:44;1126.57;;;999.90;;
5929;SDS011;2990;48.746;9.236;2022-08-25T19:50:10;1132.63;;;999.90;;
5929;SDS011;2990;48.746;9.236;2022-08-25T19:52:37;1137.03;;;999.90;;
5929;SDS011;2990;48.746;9.236;2022-08-25T19:55:04;1129.15;;;999.90;;
5929;SDS011;2990;48.746;9.236;2022-08-25T19:57:31;1098.68;;;999.67;;
5929;SDS011;2990;48.746;9.236;2022-08-25T19:59:56;1127.10;;;999.90;;
5929;SDS011;2990;48.746;9.236;2022-08-25T20:02:23;1100.15;;;999.10;;
5929;SDS011;2990;48.746;9.236;2022-08-25T20:04:50;1131.65;;;999.90;;
5929;SDS011;2990;48.746;9.236;2022-08-25T20:07:21;1139.75;;;999.90;;
5929;SDS011;2990;48.746;9.236;2022-08-25T20:09:49;1129.80;;;999.90;;
5929;SDS011;2990;48.746;9.236;2022-08-25T20:12:16;1134.57;;;999.90;;
5929;SDS011;2990;48.746;9.236;2022-08-25T20:14:44;1139.43;;;999.90;;
5929;SDS011;2990;48.746;9.236;2022-08-25T20:17:10;1131.07;;;999.90;;
5929;SDS011;2990;48.746;9.236;2022-08-25T20:19:36;1120.57;;;999.90;;
5929;SDS011;2990;48.746;9.236;2022-08-25T20:22:02;1100.68;;;999.90;;
5929;SDS011;2990;48.746;9.236;2022-08-25T20:24:27;1128.72;;;999.90;;
5929;SDS011;2990;48.746;9.236;2022-08-25T20:27:12;1112.32;;;999.90;;
5929;SDS011;2990;48.746;9.236;2022-08-25T20:29:38;1076.50;;;990.60;;
5929;SDS011;2990;48.746;9.236;2022-08-25T20:32:03;1072.57;;;985.58;;
5929;SDS011;2990;48.746;9.236;2022-08-25T20:34:29;1061.07;;;975.42;;
5929;SDS011;2990;48.746;9.236;2022-08-25T20:36:55;1040.20;;;959.03;;
5929;SDS011;2990;48.746;9.236;2022-08-25T20:39:21;1048.30;;;966.08;;
5929;SDS011;2990;48.746;9.236;2022-08-25T20:41:47;1040.72;;;959.88;;
5929;SDS011;2990;48.746;9.236;2022-08-25T20:44:13;1022.17;;;943.75;;
5929;SDS011;2990;48.746;9.236;2022-08-25T20:46:39;998.78;;;923.50;;
5929;SDS011;2990;48.746;9.236;2022-08-25T20:49:05;976.40;;;903.72;;
5929;SDS011;2990;48.746;9.236;2022-08-25T20:51:30;970.53;;;898.35;;
5929;SDS011;2990;48.746;9.236;2022-08-25T20:53:56;1002.10;;;926.40;;
5929;SDS011;2990;48.746;9.236;2022-08-25T20:56:22;941.00;;;871.92;;
5929;SDS011;2990;48.746;9.236;2022-08-25T20:58:48;950.90;;;881.13;;
5929;SDS011;2990;48.746;9.236;2022-08-25T21:01:15;889.67;;;826.30;;
5929;SDS011;2990;48.746;9.236;2022-08-25T21:03:45;852.53;;;793.20;;
5929;SDS011;2990;48.746;9.236;2022-08-25T21:06:12;880.67;;;819.10;;
5929;SDS011;2990;48.746;9.236;2022-08-25T21:08:41;820.20;;;763.47;;
5929;SDS011;2990;48.746;9.236;2022-08-25T21:11:11;823.92;;;767.47;;
5929;SDS011;2990;48.746;9.236;2022-08-25T21:13:39;767.55;;;715.28;;
5929;SDS011;2990;48.746;9.236;2022-08-25T21:16:05;802.08;;;746.95;;
5929;SDS011;2990;48.746;9.236;2022-08-25T21:18:31;819.72;;;763.42;;
5929;SDS011;2990;48.746;9.236;2022-08-25T21:21:02;804.00;;;748.88;;
5929;SDS011;2990;48.746;9.236;2022-08-25T21:23:34;808.28;;;752.45;;
5929;SDS011;2990;48.746;9.236;2022-08-25T21:26:00;804.83;;;749.50;;
5929;SDS011;2990;48.746;9.236;2022-08-25T21:28:26;783.25;;;729.58;;
5929;SDS011;2990;48.746;9.236;2022-08-25T21:30:51;747.72;;;696.78;;
5929;SDS011;2990;48.746;9.236;2022-08-25T21:33:17;786.03;;;731.90;;
5929;SDS011;2990;48.746;9.236;2022-08-25T21:35:43;792.42;;;737.97;;
5929;SDS011;2990;48.746;9.236;2022-08-25T21:38:08;755.40;;;703.30;;
5929;SDS011;2990;48.746;9.236;2022-08-25T21:40:34;809.67;;;752.97;;
5929;SDS011;2990;48.746;9.236;2022-08-25T21:43:03;815.08;;;758.17;;
5929;SDS011;2990;48.746;9.236;2022-08-25T21:45:29;777.88;;;724.38;;
5929;SDS011;2990;48.746;9.236;2022-08-25T21:48:01;815.42;;;758.53;;
5929;SDS011;2990;48.746;9.236;2022-08-25T21:50:26;829.85;;;771.83;;
5929;SDS011;2990;48.746;9.236;2022-08-25T21:52:52;831.58;;;773.58;;
5929;SDS011;2990;48.746;9.236;2022-08-25T21:55:17;786.03;;;731.85;;
5929;SDS011;2990;48.746;9.236;2022-08-25T21:57:43;839.78;;;780.97;;
5929;SDS011;2990;48.746;9.236;2022-08-25T22:00:08;839.67;;;780.75;;
5929;SDS011;2990;48.746;9.236;2022-08-25T22:02:35;854.17;;;794.30;;
5929;SDS011;2990;48.746;9.236;2022-08-25T22:05:00;848.63;;;788.40;;
5929;SDS011;2990;48.746;9.236;2022-08-25T22:07:26;863.17;;;801.92;;
5929;SDS011;2990;48.746;9.236;2022-08-25T22:09:51;863.88;;;802.72;;
5929;SDS011;2990;48.746;9.236;2022-08-25T22:12:17;857.20;;;796.58;;
5929;SDS011;2990;48.746;9.236;2022-08-25T22:14:43;859.05;;;798.53;;
5929;SDS011;2990;48.746;9.236;2022-08-25T22:17:08;864.38;;;803.22;;
5929;SDS011;2990;48.746;9.236;2022-08-25T22:19:34;849.95;;;790.03;;
5929;SDS011;2990;48.746;9.236;2022-08-25T22:22:00;853.30;;;793.25;;
5929;SDS011;2990;48.746;9.236;2022-08-25T22:24:26;858.25;;;798.00;;
5929;SDS011;2990;48.746;9.236;2022-08-25T22:26:51;856.10;;;795.90;;
5929;SDS011;2990;48.746;9.236;2022-08-25T22:29:17;878.25;;;816.15;;
5929;SDS011;2990;48.746;9.236;2022-08-25T22:31:43;877.75;;;815.70;;
5929;SDS011;2990;48.746;9.236;2022-08-25T22:34:09;850.75;;;790.55;;
5929;SDS011;2990;48.746;9.236;2022-08-25T22:36:36;918.17;;;850.95;;
5929;SDS011;2990;48.746;9.236;2022-08-25T22:39:03;922.85;;;855.13;;
5929;SDS011;2990;48.746;9.236;2022-08-25T22:41:29;924.80;;;857.22;;
5929;SDS011;2990;48.746;9.236;2022-08-25T22:43:55;889.28;;;825.90;;
5929;SDS011;2990;48.746;9.236;2022-08-25T22:46:22;927.63;;;859.88;;
5929;SDS011;2990;48.746;9.236;2022-08-25T22:48:49;861.05;;;799.58;;
5929;SDS011;2990;48.746;9.236;2022-08-25T22:51:15;865.28;;;803.65;;
5929;SDS011;2990;48.746;9.236;2022-08-25T22:53:45;901.80;;;836.10;;
5929;SDS011;2990;48.746;9.236;2022-08-25T22:56:12;901.47;;;836.08;;
5929;SDS011;2990;48.746;9.236;2022-08-25T22:58:40;894.25;;;829.97;;
5929;SDS011;2990;48.746;9.236;2022-08-25T23:01:13;890.20;;;825.88;;
5929;SDS011;2990;48.746;9.236;2022-08-25T23:03:42;860.60;;;798.78;;
5929;SDS011;2990;48.746;9.236;2022-08-25T23:06:15;795.25;;;740.38;;
5929;SDS011;2990;48.746;9.236;2022-08-25T23:08:43;813.53;;;756.90;;
5929;SDS011;2990;48.746;9.236;2022-08-25T23:11:10;777.13;;;723.45;;
5929;SDS011;2990;48.746;9.236;2022-08-25T23:13:37;775.13;;;721.38;;
5929;SDS011;2990;48.746;9.236;2022-08-25T23:16:05;799.17;;;743.17;;
5929;SDS011;2990;48.746;9.236;2022-08-25T23:18:33;773.85;;;720.17;;
5929;SDS011;2990;48.746;9.236;2022-08-25T23:20:59;778.40;;;724.65;;
5929;SDS011;2990;48.746;9.236;2022-08-25T23:23:43;790.33;;;735.67;;
5929;SDS011;2990;48.746;9.236;2022-08-25T23:26:10;788.80;;;734.30;;
5929;SDS011;2990;48.746;9.236;2022-08-25T23:28:36;766.75;;;713.78;;
5929;SDS011;2990;48.746;9.236;2022-08-25T23:31:06;747.13;;;696.00;;
5929;SDS011;2990;48.746;9.236;2022-08-25T23:33:32;670.03;;;624.92;;
5929;SDS011;2990;48.746;9.236;2022-08-25T23:35:59;699.17;;;651.55;;
5929;SDS011;2990;48.746;9.236;2022-08-25T23:38:26;632.15;;;589.63;;
5929;SDS011;2990;48.746;9.236;2022-08-25T23:40:52;615.42;;;574.55;;
5929;SDS011;2990;48.746;9.236;2022-08-25T23:43:18;656.97;;;611.95;;
5929;SDS011;2990;48.746;9.236;2022-08-25T23:45:43;638.08;;;595.55;;
5929;SDS011;2990;48.746;9.236;2022-08-25T23:48:09;546.42;;;512.03;;
5929;SDS011;2990;48.746;9.236;2022-08-25T23:50:38;537.22;;;503.85;;
5929;SDS011;2990;48.746;9.236;2022-08-25T23:53:05;534.90;;;502.13;;
5929;SDS011;2990;48.746;9.236;2022-08-25T23:55:32;485.75;;;456.42;;
5929;SDS011;2990;48.746;9.236;2022-08-25T23:57:58;515.88;;;484.33;;
